DEDAF EDXH-EDXW
Flight info
| Callsign | DEDAF |
|---|---|
| Flight time | 0h 17m |
| Altitude | 9000 |
| Route | DCT |
| Aircraft | BT36/L-BDFGLORY/S |
Departure
| Time | 2026-05-04 20:22 |
|---|---|
| Airport | Helgoland-Düne Airport (EDXH) |
Arrival
| Time | 2026-05-04 20:39 |
|---|---|
| Airport | Westerland Sylt Airport (EDXW) |
| Time | Latitude | Longitude | Altitude | Speed | Heading |
|---|---|---|---|---|---|
| 2026-05-04 20:17 | 54.18671 | 7.91493 | 7 ft | 0 kts | 302° |
| 2026-05-04 20:19 | 54.18669 | 7.91497 | 4 ft | 1 kts | 302° |
| 2026-05-04 20:19 | 54.18670 | 7.91488 | 7 ft | 3 kts | 257° |
| 2026-05-04 20:20 | 54.18650 | 7.91471 | 7 ft | 0 kts | 183° |
| 2026-05-04 20:20 | 54.18606 | 7.91420 | 3 ft | 14 kts | 228° |
| 2026-05-04 20:20 | 54.18600 | 7.91408 | 4 ft | 0 kts | 238° |
| 2026-05-04 20:20 | 54.18547 | 7.91393 | 5 ft | 19 kts | 142° |
| 2026-05-04 20:21 | 54.18499 | 7.91456 | 7 ft | 13 kts | 143° |
| 2026-05-04 20:21 | 54.18379 | 7.91605 | 6 ft | 18 kts | 145° |
| 2026-05-04 20:21 | 54.18324 | 7.91675 | 8 ft | 0 kts | 319° |
| 2026-05-04 20:22 | 54.18334 | 7.91661 | 8 ft | 17 kts | 320° |
| 2026-05-04 20:22 | 54.18599 | 7.91334 | 122 ft | 58 kts | 325° |
| 2026-05-04 20:22 | 54.18936 | 7.90898 | 371 ft | 68 kts | 329° |
| 2026-05-04 20:22 | 54.19422 | 7.90848 | 685 ft | 75 kts | 9° |
| 2026-05-04 20:23 | 54.19964 | 7.90863 | 1046 ft | 83 kts | 9° |
| 2026-05-04 20:23 | 54.20563 | 7.91128 | 1385 ft | 94 kts | 18° |
| 2026-05-04 20:23 | 54.21206 | 7.91550 | 1716 ft | 104 kts | 20° |
| 2026-05-04 20:23 | 54.21710 | 7.92267 | 2299 ft | 92 kts | 64° |
| 2026-05-04 20:24 | 54.22007 | 7.93269 | 2606 ft | 109 kts | 47° |
| 2026-05-04 20:24 | 54.22744 | 7.93978 | 2561 ft | 139 kts | 13° |
| 2026-05-04 20:24 | 54.23722 | 7.94562 | 2552 ft | 157 kts | 15° |
| 2026-05-04 20:24 | 54.24777 | 7.95193 | 2537 ft | 163 kts | 15° |
| 2026-05-04 20:25 | 54.25866 | 7.95823 | 2530 ft | 166 kts | 14° |
| 2026-05-04 20:25 | 54.26966 | 7.96456 | 2529 ft | 167 kts | 14° |
| 2026-05-04 20:25 | 54.28067 | 7.97093 | 2529 ft | 167 kts | 15° |
| 2026-05-04 20:25 | 54.29171 | 7.97732 | 2528 ft | 168 kts | 15° |
| 2026-05-04 20:26 | 54.30278 | 7.98374 | 2526 ft | 168 kts | 14° |
| 2026-05-04 20:26 | 54.31390 | 7.99019 | 2527 ft | 169 kts | 15° |
| 2026-05-04 20:26 | 54.32499 | 7.99662 | 2529 ft | 168 kts | 14° |
| 2026-05-04 20:26 | 54.33610 | 8.00306 | 2526 ft | 168 kts | 14° |
| 2026-05-04 20:27 | 54.34755 | 8.00963 | 2530 ft | 182 kts | 14° |
| 2026-05-04 20:27 | 54.35986 | 8.01669 | 2530 ft | 190 kts | 16° |
| 2026-05-04 20:27 | 54.37261 | 8.02415 | 2527 ft | 195 kts | 15° |
| 2026-05-04 20:27 | 54.38548 | 8.03166 | 2528 ft | 196 kts | 15° |
| 2026-05-04 20:28 | 54.39845 | 8.03922 | 2528 ft | 197 kts | 16° |
| 2026-05-04 20:28 | 54.41144 | 8.04680 | 2527 ft | 198 kts | 15° |
| 2026-05-04 20:28 | 54.42449 | 8.05441 | 2528 ft | 198 kts | 15° |
| 2026-05-04 20:28 | 54.43740 | 8.06193 | 2529 ft | 198 kts | 15° |
| 2026-05-04 20:29 | 54.45043 | 8.06956 | 2524 ft | 197 kts | 15° |
| 2026-05-04 20:29 | 54.45904 | 8.07458 | 2524 ft | 197 kts | 15° |
| 2026-05-04 20:29 | 54.47205 | 8.08218 | 2525 ft | 197 kts | 15° |
| 2026-05-04 20:29 | 54.48504 | 8.08978 | 2526 ft | 198 kts | 16° |
| 2026-05-04 20:30 | 54.50234 | 8.09991 | 2528 ft | 198 kts | 16° |
| 2026-05-04 20:30 | 54.51115 | 8.10508 | 2526 ft | 198 kts | 15° |
| 2026-05-04 20:30 | 54.52419 | 8.11272 | 2527 ft | 198 kts | 14° |
| 2026-05-04 20:30 | 54.53724 | 8.12037 | 2528 ft | 198 kts | 15° |
| 2026-05-04 20:31 | 54.55026 | 8.12801 | 2523 ft | 198 kts | 15° |
| 2026-05-04 20:31 | 54.56332 | 8.13570 | 2523 ft | 198 kts | 15° |
| 2026-05-04 20:31 | 54.57637 | 8.14338 | 2525 ft | 199 kts | 15° |
| 2026-05-04 20:31 | 54.58947 | 8.15106 | 2520 ft | 198 kts | 15° |
| 2026-05-04 20:32 | 54.60254 | 8.15874 | 2518 ft | 199 kts | 15° |
| 2026-05-04 20:32 | 54.61563 | 8.16647 | 2518 ft | 199 kts | 16° |
| 2026-05-04 20:32 | 54.62872 | 8.17419 | 2518 ft | 199 kts | 15° |
| 2026-05-04 20:32 | 54.64181 | 8.18190 | 2515 ft | 198 kts | 15° |
| 2026-05-04 20:33 | 54.65483 | 8.18958 | 2517 ft | 197 kts | 15° |
| 2026-05-04 20:33 | 54.66784 | 8.19727 | 2516 ft | 198 kts | 15° |
| 2026-05-04 20:33 | 54.68085 | 8.20495 | 2516 ft | 197 kts | 17° |
| 2026-05-04 20:33 | 54.69387 | 8.21265 | 2516 ft | 197 kts | 15° |
| 2026-05-04 20:34 | 54.70685 | 8.22034 | 2518 ft | 197 kts | 15° |
| 2026-05-04 20:34 | 54.71985 | 8.22804 | 2516 ft | 197 kts | 16° |
| 2026-05-04 20:34 | 54.73282 | 8.23572 | 2518 ft | 197 kts | 17° |
| 2026-05-04 20:34 | 54.74555 | 8.24326 | 2513 ft | 195 kts | 15° |
| 2026-05-04 20:35 | 54.75839 | 8.25090 | 2512 ft | 195 kts | 15° |
| 2026-05-04 20:35 | 54.77120 | 8.25853 | 2513 ft | 195 kts | 16° |
| 2026-05-04 20:35 | 54.78407 | 8.26615 | 2510 ft | 195 kts | 16° |
| 2026-05-04 20:35 | 54.79690 | 8.27380 | 2511 ft | 195 kts | 15° |
| 2026-05-04 20:36 | 54.80844 | 8.28385 | 2567 ft | 174 kts | 36° |
| 2026-05-04 20:36 | 54.81596 | 8.29912 | 2072 ft | 171 kts | 52° |
| 2026-05-04 20:36 | 54.82242 | 8.31731 | 1375 ft | 178 kts | 54° |
| 2026-05-04 20:36 | 54.83129 | 8.33089 | 901 ft | 162 kts | 22° |
| 2026-05-04 20:37 | 54.84085 | 8.33807 | 849 ft | 141 kts | 15° |
| 2026-05-04 20:37 | 54.85018 | 8.34092 | 807 ft | 132 kts | 358° |
| 2026-05-04 20:37 | 54.85911 | 8.34055 | 840 ft | 128 kts | 1° |
| 2026-05-04 20:37 | 54.86705 | 8.34548 | 1001 ft | 120 kts | 36° |
| 2026-05-04 20:38 | 54.87237 | 8.35716 | 1020 ft | 128 kts | 47° |
| 2026-05-04 20:38 | 54.87944 | 8.36180 | 948 ft | 101 kts | 2° |
| 2026-05-04 20:38 | 54.88616 | 8.36251 | 691 ft | 94 kts | 356° |
| 2026-05-04 20:38 | 54.89246 | 8.36141 | 463 ft | 91 kts | 347° |
| 2026-05-04 20:39 | 54.89836 | 8.35769 | 286 ft | 89 kts | 334° |
| 2026-05-04 20:39 | 54.90353 | 8.35237 | 125 ft | 89 kts | 328° |
| 2026-05-04 20:39 | 54.90820 | 8.34653 | 41 ft | 76 kts | 325° |
| 2026-05-04 20:39 | 54.91194 | 8.34198 | 31 ft | 46 kts | 320° |
| 2026-05-04 20:40 | 54.91300 | 8.34009 | 30 ft | 12 kts | 262° |
| 2026-05-04 20:40 | 54.91223 | 8.33752 | 28 ft | 34 kts | 240° |
| 2026-05-04 20:40 | 54.91111 | 8.33412 | 28 ft | 35 kts | 243° |
| 2026-05-04 20:40 | 54.91025 | 8.33127 | 28 ft | 28 kts | 247° |
| 2026-05-04 20:41 | 54.91053 | 8.32922 | 28 ft | 23 kts | 311° |
| 2026-05-04 20:41 | 54.91142 | 8.32747 | 22 ft | 17 kts | 309° |
| 2026-05-04 20:41 | 54.91170 | 8.32588 | 22 ft | 11 kts | 250° |
| 2026-05-04 20:41 | 54.91159 | 8.32564 | 22 ft | 0 kts | 213° |